sensor_id;sensor_type;location;lat;lon;timestamp;temperature;humidity
5364;DHT22;2705;41.410;2.160;2023-10-13T00:02:00;21.50;99.90
5364;DHT22;2705;41.410;2.160;2023-10-13T00:04:34;21.50;99.90
5364;DHT22;2705;41.410;2.160;2023-10-13T00:07:04;21.50;99.90
5364;DHT22;2705;41.410;2.160;2023-10-13T00:09:37;21.50;99.90
5364;DHT22;2705;41.410;2.160;2023-10-13T00:12:07;21.40;99.90
5364;DHT22;2705;41.410;2.160;2023-10-13T00:14:38;21.50;99.90
5364;DHT22;2705;41.410;2.160;2023-10-13T00:17:07;21.40;99.90
5364;DHT22;2705;41.410;2.160;2023-10-13T00:19:45;21.40;99.90
5364;DHT22;2705;41.410;2.160;2023-10-13T00:22:15;21.50;99.90
5364;DHT22;2705;41.410;2.160;2023-10-13T00:24:44;21.40;99.90
5364;DHT22;2705;41.410;2.160;2023-10-13T00:27:15;21.40;99.90
5364;DHT22;2705;41.410;2.160;2023-10-13T00:29:57;21.30;99.90
5364;DHT22;2705;41.410;2.160;2023-10-13T00:32:51;21.30;99.90
5364;DHT22;2705;41.410;2.160;2023-10-13T00:35:25;21.40;99.90
5364;DHT22;2705;41.410;2.160;2023-10-13T00:37:56;21.30;99.90
5364;DHT22;2705;41.410;2.160;2023-10-13T00:40:26;21.30;99.90
5364;DHT22;2705;41.410;2.160;2023-10-13T00:43:11;21.30;99.90
5364;DHT22;2705;41.410;2.160;2023-10-13T00:46:02;21.30;99.90
5364;DHT22;2705;41.410;2.160;2023-10-13T00:48:37;21.40;99.90
5364;DHT22;2705;41.410;2.160;2023-10-13T00:51:22;21.40;99.90
5364;DHT22;2705;41.410;2.160;2023-10-13T00:54:04;21.40;99.90
5364;DHT22;2705;41.410;2.160;2023-10-13T00:56:37;21.40;99.90
5364;DHT22;2705;41.410;2.160;2023-10-13T00:59:14;21.30;99.90
5364;DHT22;2705;41.410;2.160;2023-10-13T01:01:42;21.40;99.90
5364;DHT22;2705;41.410;2.160;2023-10-13T01:04:12;21.30;99.90
5364;DHT22;2705;41.410;2.160;2023-10-13T01:06:42;21.30;99.90
5364;DHT22;2705;41.410;2.160;2023-10-13T01:09:13;21.30;99.90
5364;DHT22;2705;41.410;2.160;2023-10-13T01:11:45;21.30;99.90
5364;DHT22;2705;41.410;2.160;2023-10-13T01:14:16;21.30;99.90
5364;DHT22;2705;41.410;2.160;2023-10-13T01:16:45;21.30;99.90
5364;DHT22;2705;41.410;2.160;2023-10-13T01:19:16;21.40;99.90
5364;DHT22;2705;41.410;2.160;2023-10-13T01:21:49;21.30;99.90
5364;DHT22;2705;41.410;2.160;2023-10-13T01:24:19;21.40;99.90
5364;DHT22;2705;41.410;2.160;2023-10-13T01:26:53;21.30;99.90
5364;DHT22;2705;41.410;2.160;2023-10-13T01:29:22;21.30;99.90
5364;DHT22;2705;41.410;2.160;2023-10-13T01:31:56;21.30;99.90
5364;DHT22;2705;41.410;2.160;2023-10-13T01:34:26;21.30;99.90
5364;DHT22;2705;41.410;2.160;2023-10-13T01:36:55;21.20;99.90
5364;DHT22;2705;41.410;2.160;2023-10-13T01:39:26;21.10;99.90
5364;DHT22;2705;41.410;2.160;2023-10-13T01:41:54;21.20;99.90
5364;DHT22;2705;41.410;2.160;2023-10-13T01:44:24;21.20;99.90
5364;DHT22;2705;41.410;2.160;2023-10-13T01:46:54;21.10;99.90
5364;DHT22;2705;41.410;2.160;2023-10-13T01:49:23;21.20;99.90
5364;DHT22;2705;41.410;2.160;2023-10-13T01:51:51;21.20;99.90
5364;DHT22;2705;41.410;2.160;2023-10-13T01:54:21;21.20;99.90
5364;DHT22;2705;41.410;2.160;2023-10-13T01:56:51;21.20;99.90
5364;DHT22;2705;41.410;2.160;2023-10-13T01:59:20;21.10;99.90
5364;DHT22;2705;41.410;2.160;2023-10-13T02:01:49;21.20;99.90
5364;DHT22;2705;41.410;2.160;2023-10-13T02:04:19;21.10;99.90
5364;DHT22;2705;41.410;2.160;2023-10-13T02:06:49;21.20;99.90
5364;DHT22;2705;41.410;2.160;2023-10-13T02:09:19;21.10;99.90
5364;DHT22;2705;41.410;2.160;2023-10-13T02:11:54;21.10;99.90
5364;DHT22;2705;41.410;2.160;2023-10-13T02:14:24;21.10;99.90
5364;DHT22;2705;41.410;2.160;2023-10-13T02:16:53;21.10;99.90
5364;DHT22;2705;41.410;2.160;2023-10-13T02:19:39;21.20;99.90
5364;DHT22;2705;41.410;2.160;2023-10-13T02:22:14;21.10;99.90
5364;DHT22;2705;41.410;2.160;2023-10-13T02:24:53;21.10;99.90
5364;DHT22;2705;41.410;2.160;2023-10-13T02:27:34;21.10;99.90
5364;DHT22;2705;41.410;2.160;2023-10-13T02:30:09;21.10;99.90
5364;DHT22;2705;41.410;2.160;2023-10-13T02:32:42;21.20;99.90
5364;DHT22;2705;41.410;2.160;2023-10-13T02:35:12;21.20;99.90
5364;DHT22;2705;41.410;2.160;2023-10-13T02:37:43;21.10;99.90
5364;DHT22;2705;41.410;2.160;2023-10-13T02:40:22;21.10;99.90
5364;DHT22;2705;41.410;2.160;2023-10-13T02:42:53;21.10;99.90
5364;DHT22;2705;41.410;2.160;2023-10-13T02:45:21;21.20;99.90
5364;DHT22;2705;41.410;2.160;2023-10-13T02:47:53;21.10;99.90
5364;DHT22;2705;41.410;2.160;2023-10-13T02:50:40;21.10;99.90
5364;DHT22;2705;41.410;2.160;2023-10-13T02:53:13;21.10;99.90
5364;DHT22;2705;41.410;2.160;2023-10-13T02:55:50;21.10;99.90
5364;DHT22;2705;41.410;2.160;2023-10-13T02:58:21;20.90;99.90
5364;DHT22;2705;41.410;2.160;2023-10-13T03:00:50;20.90;99.90
5364;DHT22;2705;41.410;2.160;2023-10-13T03:03:18;21.00;99.90
5364;DHT22;2705;41.410;2.160;2023-10-13T03:05:47;20.90;99.90
5364;DHT22;2705;41.410;2.160;2023-10-13T03:08:15;21.00;99.90
5364;DHT22;2705;41.410;2.160;2023-10-13T03:10:54;21.00;99.90
5364;DHT22;2705;41.410;2.160;2023-10-13T03:13:24;21.00;99.90
5364;DHT22;2705;41.410;2.160;2023-10-13T03:15:54;20.90;99.90
5364;DHT22;2705;41.410;2.160;2023-10-13T03:18:23;20.90;99.90
5364;DHT22;2705;41.410;2.160;2023-10-13T03:20:51;20.90;99.90
5364;DHT22;2705;41.410;2.160;2023-10-13T03:23:25;20.90;99.90
5364;DHT22;2705;41.410;2.160;2023-10-13T03:25:54;20.90;99.90
5364;DHT22;2705;41.410;2.160;2023-10-13T03:28:24;20.80;99.90
5364;DHT22;2705;41.410;2.160;2023-10-13T03:31:01;20.90;99.90
5364;DHT22;2705;41.410;2.160;2023-10-13T03:33:32;20.90;99.90
5364;DHT22;2705;41.410;2.160;2023-10-13T03:36:01;21.00;99.90
5364;DHT22;2705;41.410;2.160;2023-10-13T03:38:34;20.90;99.90
5364;DHT22;2705;41.410;2.160;2023-10-13T03:41:06;21.00;99.90
5364;DHT22;2705;41.410;2.160;2023-10-13T03:43:41;21.10;99.90
5364;DHT22;2705;41.410;2.160;2023-10-13T03:46:19;21.00;99.90
5364;DHT22;2705;41.410;2.160;2023-10-13T03:48:50;21.00;99.90
5364;DHT22;2705;41.410;2.160;2023-10-13T03:51:22;21.00;99.90
5364;DHT22;2705;41.410;2.160;2023-10-13T03:53:59;21.00;99.90
5364;DHT22;2705;41.410;2.160;2023-10-13T03:56:36;21.00;99.90
5364;DHT22;2705;41.410;2.160;2023-10-13T03:59:10;21.00;99.90
5364;DHT22;2705;41.410;2.160;2023-10-13T04:01:48;21.00;99.90
5364;DHT22;2705;41.410;2.160;2023-10-13T04:04:27;21.00;99.90
5364;DHT22;2705;41.410;2.160;2023-10-13T04:07:05;20.80;99.90
5364;DHT22;2705;41.410;2.160;2023-10-13T04:10:07;20.90;99.90
5364;DHT22;2705;41.410;2.160;2023-10-13T04:12:54;20.80;99.90
5364;DHT22;2705;41.410;2.160;2023-10-13T04:15:44;20.80;99.90
5364;DHT22;2705;41.410;2.160;2023-10-13T04:18:42;20.90;99.90
5364;DHT22;2705;41.410;2.160;2023-10-13T04:21:36;20.90;99.90
5364;DHT22;2705;41.410;2.160;2023-10-13T04:24:10;20.90;99.90
5364;DHT22;2705;41.410;2.160;2023-10-13T04:26:57;20.90;99.90
5364;DHT22;2705;41.410;2.160;2023-10-13T04:29:40;20.90;99.90
5364;DHT22;2705;41.410;2.160;2023-10-13T04:32:21;21.00;99.90
5364;DHT22;2705;41.410;2.160;2023-10-13T04:34:57;21.00;99.90
5364;DHT22;2705;41.410;2.160;2023-10-13T04:37:36;20.90;99.90
5364;DHT22;2705;41.410;2.160;2023-10-13T04:40:19;20.80;99.90
5364;DHT22;2705;41.410;2.160;2023-10-13T04:42:53;20.90;99.90
5364;DHT22;2705;41.410;2.160;2023-10-13T04:45:25;20.90;99.90
5364;DHT22;2705;41.410;2.160;2023-10-13T04:48:15;20.90;99.90
5364;DHT22;2705;41.410;2.160;2023-10-13T04:51:01;21.00;99.90
5364;DHT22;2705;41.410;2.160;2023-10-13T04:53:47;20.90;99.90
5364;DHT22;2705;41.410;2.160;2023-10-13T04:56:31;20.80;99.90
5364;DHT22;2705;41.410;2.160;2023-10-13T04:59:27;20.80;99.90
5364;DHT22;2705;41.410;2.160;2023-10-13T05:02:25;20.80;99.90
5364;DHT22;2705;41.410;2.160;2023-10-13T05:05:14;20.80;99.90
5364;DHT22;2705;41.410;2.160;2023-10-13T05:08:06;20.80;99.90
5364;DHT22;2705;41.410;2.160;2023-10-13T05:10:53;20.80;99.90
5364;DHT22;2705;41.410;2.160;2023-10-13T05:13:39;20.80;99.90
5364;DHT22;2705;41.410;2.160;2023-10-13T05:16:26;20.80;99.90
5364;DHT22;2705;41.410;2.160;2023-10-13T05:19:13;20.80;99.90
5364;DHT22;2705;41.410;2.160;2023-10-13T05:22:01;20.80;99.90
5364;DHT22;2705;41.410;2.160;2023-10-13T05:24:50;20.70;99.90
5364;DHT22;2705;41.410;2.160;2023-10-13T05:27:37;20.80;99.90
5364;DHT22;2705;41.410;2.160;2023-10-13T05:30:24;21.00;99.90
5364;DHT22;2705;41.410;2.160;2023-10-13T05:33:10;21.00;99.90
5364;DHT22;2705;41.410;2.160;2023-10-13T05:35:57;21.00;99.90
5364;DHT22;2705;41.410;2.160;2023-10-13T05:38:44;21.00;99.90
5364;DHT22;2705;41.410;2.160;2023-10-13T05:41:27;20.90;99.90
5364;DHT22;2705;41.410;2.160;2023-10-13T05:44:14;21.00;99.90
5364;DHT22;2705;41.410;2.160;2023-10-13T05:47:05;20.90;99.90
5364;DHT22;2705;41.410;2.160;2023-10-13T05:49:51;21.00;99.90
5364;DHT22;2705;41.410;2.160;2023-10-13T05:52:32;20.90;99.90
5364;DHT22;2705;41.410;2.160;2023-10-13T05:55:21;20.90;99.90
5364;DHT22;2705;41.410;2.160;2023-10-13T05:58:08;21.00;99.90
5364;DHT22;2705;41.410;2.160;2023-10-13T06:00:57;21.00;99.90
5364;DHT22;2705;41.410;2.160;2023-10-13T06:03:50;21.00;99.90
5364;DHT22;2705;41.410;2.160;2023-10-13T06:06:37;21.00;99.90
5364;DHT22;2705;41.410;2.160;2023-10-13T06:09:20;21.00;99.90
5364;DHT22;2705;41.410;2.160;2023-10-13T06:12:13;21.00;99.90
5364;DHT22;2705;41.410;2.160;2023-10-13T06:14:59;20.90;99.90
5364;DHT22;2705;41.410;2.160;2023-10-13T06:17:45;20.90;99.90
5364;DHT22;2705;41.410;2.160;2023-10-13T06:20:31;21.00;99.90
5364;DHT22;2705;41.410;2.160;2023-10-13T06:23:18;21.10;99.90
5364;DHT22;2705;41.410;2.160;2023-10-13T06:26:05;21.10;99.90
5364;DHT22;2705;41.410;2.160;2023-10-13T06:28:53;21.20;99.90
5364;DHT22;2705;41.410;2.160;2023-10-13T06:31:22;21.20;99.90
5364;DHT22;2705;41.410;2.160;2023-10-13T06:33:54;21.10;99.90
5364;DHT22;2705;41.410;2.160;2023-10-13T06:36:24;21.00;99.90
5364;DHT22;2705;41.410;2.160;2023-10-13T06:38:53;21.10;99.90
5364;DHT22;2705;41.410;2.160;2023-10-13T06:41:45;21.10;99.90
5364;DHT22;2705;41.410;2.160;2023-10-13T06:44:16;21.20;99.90
5364;DHT22;2705;41.410;2.160;2023-10-13T06:46:45;21.20;99.90
5364;DHT22;2705;41.410;2.160;2023-10-13T06:49:17;21.30;99.90
5364;DHT22;2705;41.410;2.160;2023-10-13T06:51:47;21.40;99.90
5364;DHT22;2705;41.410;2.160;2023-10-13T06:54:17;21.40;99.90
5364;DHT22;2705;41.410;2.160;2023-10-13T06:56:48;21.40;99.90
5364;DHT22;2705;41.410;2.160;2023-10-13T06:59:22;21.50;99.90
5364;DHT22;2705;41.410;2.160;2023-10-13T07:01:55;21.50;99.90
5364;DHT22;2705;41.410;2.160;2023-10-13T07:04:51;21.60;99.90
5364;DHT22;2705;41.410;2.160;2023-10-13T07:07:25;21.70;99.90
5364;DHT22;2705;41.410;2.160;2023-10-13T07:09:54;21.80;99.90
5364;DHT22;2705;41.410;2.160;2023-10-13T07:12:26;21.80;99.90
5364;DHT22;2705;41.410;2.160;2023-10-13T07:14:56;21.80;99.90
5364;DHT22;2705;41.410;2.160;2023-10-13T07:17:39;21.80;99.90
5364;DHT22;2705;41.410;2.160;2023-10-13T07:20:09;21.90;99.90
5364;DHT22;2705;41.410;2.160;2023-10-13T07:22:51;22.00;99.90
5364;DHT22;2705;41.410;2.160;2023-10-13T07:25:30;21.90;99.90
5364;DHT22;2705;41.410;2.160;2023-10-13T07:28:00;22.00;99.90
5364;DHT22;2705;41.410;2.160;2023-10-13T07:30:32;22.10;99.90
5364;DHT22;2705;41.410;2.160;2023-10-13T07:33:07;22.10;99.90
5364;DHT22;2705;41.410;2.160;2023-10-13T07:35:41;22.20;99.90
5364;DHT22;2705;41.410;2.160;2023-10-13T07:38:10;22.20;99.90
5364;DHT22;2705;41.410;2.160;2023-10-13T07:40:41;22.30;99.90
5364;DHT22;2705;41.410;2.160;2023-10-13T07:43:11;22.30;99.90
5364;DHT22;2705;41.410;2.160;2023-10-13T07:45:42;22.30;99.90
5364;DHT22;2705;41.410;2.160;2023-10-13T07:48:12;22.50;99.90
5364;DHT22;2705;41.410;2.160;2023-10-13T07:50:47;22.50;99.90
5364;DHT22;2705;41.410;2.160;2023-10-13T07:53:16;22.50;99.90
5364;DHT22;2705;41.410;2.160;2023-10-13T07:55:51;22.60;99.90
5364;DHT22;2705;41.410;2.160;2023-10-13T07:58:23;22.60;99.90
5364;DHT22;2705;41.410;2.160;2023-10-13T08:00:55;22.60;99.90
5364;DHT22;2705;41.410;2.160;2023-10-13T08:03:35;22.70;99.90
5364;DHT22;2705;41.410;2.160;2023-10-13T08:06:12;22.70;99.90
5364;DHT22;2705;41.410;2.160;2023-10-13T08:08:54;22.80;99.90
5364;DHT22;2705;41.410;2.160;2023-10-13T08:11:33;22.80;99.90
5364;DHT22;2705;41.410;2.160;2023-10-13T08:14:05;22.90;99.90
5364;DHT22;2705;41.410;2.160;2023-10-13T08:17:07;22.90;99.90
5364;DHT22;2705;41.410;2.160;2023-10-13T08:19:37;22.90;99.90
5364;DHT22;2705;41.410;2.160;2023-10-13T08:22:14;23.00;99.90
5364;DHT22;2705;41.410;2.160;2023-10-13T08:24:53;23.10;99.90
5364;DHT22;2705;41.410;2.160;2023-10-13T08:27:43;23.20;99.90
5364;DHT22;2705;41.410;2.160;2023-10-13T08:30:34;23.30;99.90
5364;DHT22;2705;41.410;2.160;2023-10-13T08:33:22;23.30;99.90
5364;DHT22;2705;41.410;2.160;2023-10-13T08:35:55;23.40;99.90
5364;DHT22;2705;41.410;2.160;2023-10-13T08:38:46;23.60;99.90
5364;DHT22;2705;41.410;2.160;2023-10-13T08:41:23;23.70;99.90
5364;DHT22;2705;41.410;2.160;2023-10-13T08:44:02;23.80;99.90
5364;DHT22;2705;41.410;2.160;2023-10-13T08:46:32;23.90;99.90
5364;DHT22;2705;41.410;2.160;2023-10-13T08:49:31;24.00;99.90
5364;DHT22;2705;41.410;2.160;2023-10-13T08:52:11;24.00;99.90
5364;DHT22;2705;41.410;2.160;2023-10-13T08:55:10;24.10;99.90
5364;DHT22;2705;41.410;2.160;2023-10-13T08:57:57;24.20;99.90
5364;DHT22;2705;41.410;2.160;2023-10-13T09:00:32;24.20;99.90
5364;DHT22;2705;41.410;2.160;2023-10-13T09:03:15;24.10;99.90
5364;DHT22;2705;41.410;2.160;2023-10-13T09:06:12;24.20;99.90
5364;DHT22;2705;41.410;2.160;2023-10-13T09:08:43;24.30;99.90
5364;DHT22;2705;41.410;2.160;2023-10-13T09:11:34;24.30;99.90
5364;DHT22;2705;41.410;2.160;2023-10-13T09:14:18;24.40;99.90
5364;DHT22;2705;41.410;2.160;2023-10-13T09:17:14;24.50;99.90
5364;DHT22;2705;41.410;2.160;2023-10-13T09:20:04;24.40;99.90
5364;DHT22;2705;41.410;2.160;2023-10-13T09:22:53;24.40;99.90
5364;DHT22;2705;41.410;2.160;2023-10-13T09:25:36;24.50;99.90
5364;DHT22;2705;41.410;2.160;2023-10-13T09:28:11;24.30;99.90
5364;DHT22;2705;41.410;2.160;2023-10-13T09:30:46;24.40;99.90
5364;DHT22;2705;41.410;2.160;2023-10-13T09:33:20;24.30;99.90
5364;DHT22;2705;41.410;2.160;2023-10-13T09:35:56;24.40;99.90
5364;DHT22;2705;41.410;2.160;2023-10-13T09:38:28;24.40;99.90
5364;DHT22;2705;41.410;2.160;2023-10-13T09:40:59;24.40;99.90
5364;DHT22;2705;41.410;2.160;2023-10-13T09:43:29;24.20;99.90
5364;DHT22;2705;41.410;2.160;2023-10-13T09:45:59;24.40;99.90
5364;DHT22;2705;41.410;2.160;2023-10-13T09:48:37;24.50;99.90
5364;DHT22;2705;41.410;2.160;2023-10-13T09:51:13;24.60;99.90
5364;DHT22;2705;41.410;2.160;2023-10-13T09:53:44;24.80;99.90
5364;DHT22;2705;41.410;2.160;2023-10-13T09:56:40;24.70;99.90
5364;DHT22;2705;41.410;2.160;2023-10-13T09:59:22;24.60;99.90
5364;DHT22;2705;41.410;2.160;2023-10-13T10:01:53;24.60;99.90
5364;DHT22;2705;41.410;2.160;2023-10-13T10:04:26;24.50;99.90
5364;DHT22;2705;41.410;2.160;2023-10-13T10:06:55;24.40;99.90
5364;DHT22;2705;41.410;2.160;2023-10-13T10:09:27;24.50;99.90
5364;DHT22;2705;41.410;2.160;2023-10-13T10:12:19;24.60;99.90
5364;DHT22;2705;41.410;2.160;2023-10-13T10:15:10;24.70;99.90
5364;DHT22;2705;41.410;2.160;2023-10-13T10:17:48;24.90;99.90
5364;DHT22;2705;41.410;2.160;2023-10-13T10:20:30;24.90;99.90
5364;DHT22;2705;41.410;2.160;2023-10-13T10:23:07;24.90;99.90
5364;DHT22;2705;41.410;2.160;2023-10-13T10:25:42;24.90;99.90
5364;DHT22;2705;41.410;2.160;2023-10-13T10:28:13;25.10;99.90
5364;DHT22;2705;41.410;2.160;2023-10-13T10:30:43;25.10;99.90
5364;DHT22;2705;41.410;2.160;2023-10-13T10:33:13;25.10;99.90
5364;DHT22;2705;41.410;2.160;2023-10-13T10:35:46;25.40;99.90
5364;DHT22;2705;41.410;2.160;2023-10-13T10:38:16;25.50;99.90
5364;DHT22;2705;41.410;2.160;2023-10-13T10:41:01;25.70;99.90
5364;DHT22;2705;41.410;2.160;2023-10-13T10:43:37;25.60;99.90
5364;DHT22;2705;41.410;2.160;2023-10-13T10:46:14;25.60;99.90
5364;DHT22;2705;41.410;2.160;2023-10-13T10:48:45;25.60;99.90
5364;DHT22;2705;41.410;2.160;2023-10-13T10:51:17;25.50;99.90
5364;DHT22;2705;41.410;2.160;2023-10-13T10:53:54;25.60;99.90
5364;DHT22;2705;41.410;2.160;2023-10-13T10:56:26;25.50;99.90
5364;DHT22;2705;41.410;2.160;2023-10-13T10:59:05;25.60;99.90
5364;DHT22;2705;41.410;2.160;2023-10-13T11:01:43;25.90;99.90
5364;DHT22;2705;41.410;2.160;2023-10-13T11:04:18;25.80;99.90
5364;DHT22;2705;41.410;2.160;2023-10-13T11:06:55;26.00;99.90
5364;DHT22;2705;41.410;2.160;2023-10-13T11:09:26;25.90;99.90
5364;DHT22;2705;41.410;2.160;2023-10-13T11:12:10;26.10;99.90
5364;DHT22;2705;41.410;2.160;2023-10-13T11:15:03;25.90;99.90
5364;DHT22;2705;41.410;2.160;2023-10-13T11:17:40;26.00;99.90
5364;DHT22;2705;41.410;2.160;2023-10-13T11:20:19;26.10;99.90
5364;DHT22;2705;41.410;2.160;2023-10-13T11:23:11;26.20;99.90
5364;DHT22;2705;41.410;2.160;2023-10-13T11:25:40;26.10;99.90
5364;DHT22;2705;41.410;2.160;2023-10-13T11:28:13;26.10;99.90
5364;DHT22;2705;41.410;2.160;2023-10-13T11:30:48;25.80;99.90
5364;DHT22;2705;41.410;2.160;2023-10-13T11:33:24;25.90;99.90
5364;DHT22;2705;41.410;2.160;2023-10-13T11:35:55;26.00;99.90
5364;DHT22;2705;41.410;2.160;2023-10-13T11:38:27;25.90;99.90
5364;DHT22;2705;41.410;2.160;2023-10-13T11:41:03;26.00;99.90
5364;DHT22;2705;41.410;2.160;2023-10-13T11:43:41;25.80;99.90
5364;DHT22;2705;41.410;2.160;2023-10-13T11:46:33;25.80;99.90
5364;DHT22;2705;41.410;2.160;2023-10-13T11:49:20;25.90;99.90
5364;DHT22;2705;41.410;2.160;2023-10-13T11:51:59;26.00;99.90
5364;DHT22;2705;41.410;2.160;2023-10-13T11:54:53;26.00;99.90
5364;DHT22;2705;41.410;2.160;2023-10-13T11:57:22;26.10;99.90
5364;DHT22;2705;41.410;2.160;2023-10-13T11:59:52;26.10;99.90
5364;DHT22;2705;41.410;2.160;2023-10-13T12:02:47;26.10;99.90
5364;DHT22;2705;41.410;2.160;2023-10-13T12:05:34;26.20;99.90
5364;DHT22;2705;41.410;2.160;2023-10-13T12:08:34;26.20;99.90
5364;DHT22;2705;41.410;2.160;2023-10-13T12:11:08;26.30;99.90
5364;DHT22;2705;41.410;2.160;2023-10-13T12:13:50;26.30;99.90
5364;DHT22;2705;41.410;2.160;2023-10-13T12:16:21;26.40;99.90
5364;DHT22;2705;41.410;2.160;2023-10-13T12:18:50;26.40;99.90
5364;DHT22;2705;41.410;2.160;2023-10-13T12:21:22;26.30;99.90
5364;DHT22;2705;41.410;2.160;2023-10-13T12:23:51;26.20;99.90
5364;DHT22;2705;41.410;2.160;2023-10-13T12:26:23;26.20;99.90
5364;DHT22;2705;41.410;2.160;2023-10-13T12:29:00;26.20;99.90
5364;DHT22;2705;41.410;2.160;2023-10-13T12:31:34;26.30;99.90
5364;DHT22;2705;41.410;2.160;2023-10-13T12:34:07;26.40;99.90
5364;DHT22;2705;41.410;2.160;2023-10-13T12:36:46;26.40;99.90
5364;DHT22;2705;41.410;2.160;2023-10-13T12:39:33;26.40;99.90
5364;DHT22;2705;41.410;2.160;2023-10-13T12:42:21;26.30;99.90
5364;DHT22;2705;41.410;2.160;2023-10-13T12:45:08;26.40;99.90
5364;DHT22;2705;41.410;2.160;2023-10-13T12:47:55;26.50;99.90
5364;DHT22;2705;41.410;2.160;2023-10-13T12:50:41;26.40;99.90
5364;DHT22;2705;41.410;2.160;2023-10-13T12:53:25;26.40;99.90
5364;DHT22;2705;41.410;2.160;2023-10-13T12:55:58;26.40;99.90
5364;DHT22;2705;41.410;2.160;2023-10-13T12:58:32;26.50;99.90
5364;DHT22;2705;41.410;2.160;2023-10-13T13:01:06;26.50;99.90
5364;DHT22;2705;41.410;2.160;2023-10-13T13:03:35;26.50;99.90
5364;DHT22;2705;41.410;2.160;2023-10-13T13:06:16;26.50;99.90
5364;DHT22;2705;41.410;2.160;2023-10-13T13:08:45;26.60;99.90
5364;DHT22;2705;41.410;2.160;2023-10-13T13:11:14;26.50;99.90
5364;DHT22;2705;41.410;2.160;2023-10-13T13:13:45;26.60;99.90
5364;DHT22;2705;41.410;2.160;2023-10-13T13:16:15;26.60;99.90
5364;DHT22;2705;41.410;2.160;2023-10-13T13:18:46;26.70;99.90
5364;DHT22;2705;41.410;2.160;2023-10-13T13:21:15;26.50;99.90
5364;DHT22;2705;41.410;2.160;2023-10-13T13:23:49;26.40;99.90
5364;DHT22;2705;41.410;2.160;2023-10-13T13:26:18;26.50;99.90
5364;DHT22;2705;41.410;2.160;2023-10-13T13:28:50;26.50;99.90
5364;DHT22;2705;41.410;2.160;2023-10-13T13:31:20;26.50;99.90
5364;DHT22;2705;41.410;2.160;2023-10-13T13:33:53;26.60;99.90
5364;DHT22;2705;41.410;2.160;2023-10-13T13:36:22;26.60;99.90
5364;DHT22;2705;41.410;2.160;2023-10-13T13:38:51;26.60;99.90
5364;DHT22;2705;41.410;2.160;2023-10-13T13:41:22;26.60;99.90
5364;DHT22;2705;41.410;2.160;2023-10-13T13:43:52;26.50;99.90
5364;DHT22;2705;41.410;2.160;2023-10-13T13:46:25;26.50;99.90
5364;DHT22;2705;41.410;2.160;2023-10-13T13:49:01;26.50;99.90
5364;DHT22;2705;41.410;2.160;2023-10-13T13:51:34;26.50;99.90
5364;DHT22;2705;41.410;2.160;2023-10-13T13:54:05;26.60;99.90
5364;DHT22;2705;41.410;2.160;2023-10-13T13:56:35;26.50;99.90
5364;DHT22;2705;41.410;2.160;2023-10-13T13:59:11;26.50;99.90
5364;DHT22;2705;41.410;2.160;2023-10-13T14:01:43;26.30;99.90
5364;DHT22;2705;41.410;2.160;2023-10-13T14:04:13;26.30;99.90
5364;DHT22;2705;41.410;2.160;2023-10-13T14:06:45;26.40;99.90
5364;DHT22;2705;41.410;2.160;2023-10-13T14:09:14;26.40;99.90
5364;DHT22;2705;41.410;2.160;2023-10-13T14:11:50;26.50;99.90
5364;DHT22;2705;41.410;2.160;2023-10-13T14:14:42;26.50;99.90
5364;DHT22;2705;41.410;2.160;2023-10-13T14:17:17;26.50;99.90
5364;DHT22;2705;41.410;2.160;2023-10-13T14:19:46;26.50;99.90
5364;DHT22;2705;41.410;2.160;2023-10-13T14:22:15;26.60;99.90
5364;DHT22;2705;41.410;2.160;2023-10-13T14:24:44;26.50;99.90
5364;DHT22;2705;41.410;2.160;2023-10-13T14:27:15;26.40;99.90
5364;DHT22;2705;41.410;2.160;2023-10-13T14:29:50;26.50;99.90
5364;DHT22;2705;41.410;2.160;2023-10-13T14:32:22;26.50;99.90
5364;DHT22;2705;41.410;2.160;2023-10-13T14:34:55;26.60;99.90
5364;DHT22;2705;41.410;2.160;2023-10-13T14:37:25;26.60;99.90
5364;DHT22;2705;41.410;2.160;2023-10-13T14:39:59;26.60;99.90
5364;DHT22;2705;41.410;2.160;2023-10-13T14:42:30;26.40;99.90
5364;DHT22;2705;41.410;2.160;2023-10-13T14:45:05;26.50;99.90
5364;DHT22;2705;41.410;2.160;2023-10-13T14:47:40;26.90;99.90
5364;DHT22;2705;41.410;2.160;2023-10-13T14:50:11;27.30;99.90
5364;DHT22;2705;41.410;2.160;2023-10-13T14:52:48;27.60;99.90
5364;DHT22;2705;41.410;2.160;2023-10-13T14:55:19;27.90;99.90
5364;DHT22;2705;41.410;2.160;2023-10-13T14:57:50;27.80;99.90
5364;DHT22;2705;41.410;2.160;2023-10-13T15:00:20;27.80;99.90
5364;DHT22;2705;41.410;2.160;2023-10-13T15:02:55;27.90;99.90
5364;DHT22;2705;41.410;2.160;2023-10-13T15:05:25;28.10;99.90
5364;DHT22;2705;41.410;2.160;2023-10-13T15:07:57;28.00;99.90
5364;DHT22;2705;41.410;2.160;2023-10-13T15:10:27;28.00;99.90
5364;DHT22;2705;41.410;2.160;2023-10-13T15:12:56;28.10;99.90
5364;DHT22;2705;41.410;2.160;2023-10-13T15:15:28;28.30;99.90
5364;DHT22;2705;41.410;2.160;2023-10-13T15:17:59;28.00;99.90
5364;DHT22;2705;41.410;2.160;2023-10-13T15:20:29;28.00;99.90
5364;DHT22;2705;41.410;2.160;2023-10-13T15:22:58;28.20;99.90
5364;DHT22;2705;41.410;2.160;2023-10-13T15:25:28;28.00;99.90
5364;DHT22;2705;41.410;2.160;2023-10-13T15:28:07;28.00;99.90
5364;DHT22;2705;41.410;2.160;2023-10-13T15:30:39;28.00;99.90
5364;DHT22;2705;41.410;2.160;2023-10-13T15:33:16;27.90;99.90
5364;DHT22;2705;41.410;2.160;2023-10-13T15:35:47;27.80;99.90
5364;DHT22;2705;41.410;2.160;2023-10-13T15:38:19;27.60;99.90
5364;DHT22;2705;41.410;2.160;2023-10-13T15:40:49;27.40;99.90
5364;DHT22;2705;41.410;2.160;2023-10-13T15:43:23;26.70;99.90
5364;DHT22;2705;41.410;2.160;2023-10-13T15:45:54;26.10;99.90
5364;DHT22;2705;41.410;2.160;2023-10-13T15:48:45;26.00;99.90
5364;DHT22;2705;41.410;2.160;2023-10-13T15:51:34;25.80;99.90
5364;DHT22;2705;41.410;2.160;2023-10-13T15:54:04;25.70;99.90
5364;DHT22;2705;41.410;2.160;2023-10-13T15:56:43;25.60;99.90
5364;DHT22;2705;41.410;2.160;2023-10-13T15:59:12;25.50;99.90
5364;DHT22;2705;41.410;2.160;2023-10-13T16:01:43;25.50;99.90
5364;DHT22;2705;41.410;2.160;2023-10-13T16:04:14;25.30;99.90
5364;DHT22;2705;41.410;2.160;2023-10-13T16:06:47;25.30;99.90
5364;DHT22;2705;41.410;2.160;2023-10-13T16:09:18;25.30;99.90
5364;DHT22;2705;41.410;2.160;2023-10-13T16:11:52;25.20;99.90
5364;DHT22;2705;41.410;2.160;2023-10-13T16:14:22;25.10;99.90
5364;DHT22;2705;41.410;2.160;2023-10-13T16:16:53;25.00;99.90
5364;DHT22;2705;41.410;2.160;2023-10-13T16:19:22;25.00;99.90
5364;DHT22;2705;41.410;2.160;2023-10-13T16:21:53;24.90;99.90
5364;DHT22;2705;41.410;2.160;2023-10-13T16:24:22;24.90;99.90
5364;DHT22;2705;41.410;2.160;2023-10-13T16:26:52;24.80;99.90
5364;DHT22;2705;41.410;2.160;2023-10-13T16:29:24;24.80;99.90
5364;DHT22;2705;41.410;2.160;2023-10-13T16:31:57;24.90;99.90
5364;DHT22;2705;41.410;2.160;2023-10-13T16:34:27;24.80;99.90
5364;DHT22;2705;41.410;2.160;2023-10-13T16:36:57;24.80;99.90
5364;DHT22;2705;41.410;2.160;2023-10-13T16:39:28;24.70;99.90
5364;DHT22;2705;41.410;2.160;2023-10-13T16:41:58;24.60;99.90
5364;DHT22;2705;41.410;2.160;2023-10-13T16:44:27;24.60;99.90
5364;DHT22;2705;41.410;2.160;2023-10-13T16:47:00;24.60;99.90
5364;DHT22;2705;41.410;2.160;2023-10-13T16:49:32;24.50;99.90
5364;DHT22;2705;41.410;2.160;2023-10-13T16:52:01;24.50;99.90
5364;DHT22;2705;41.410;2.160;2023-10-13T16:54:31;24.50;99.90
5364;DHT22;2705;41.410;2.160;2023-10-13T16:57:01;24.30;99.90
5364;DHT22;2705;41.410;2.160;2023-10-13T16:59:32;24.20;99.90
5364;DHT22;2705;41.410;2.160;2023-10-13T17:02:02;24.20;99.90